Time;durP1;ratioP1;P1;durP2;ratioP2;P2;SDS_P1;SDS_P2;PMS_P1;PMS_P2;Temp;Humidity;BMP_temperature;BMP_pressure;BME280_temperature;BME280_humidity;BME280_pressure;Samples;Min_cycle;Max_cycle;Signal;HPM_P1;HPM_P2
2022/03/02 00:00:29;;;;;;;1.93;1.70;;;0.50;98.00;;;;;;5111975;28;20517;-66
2022/03/02 00:02:56;;;;;;;2.90;2.10;;;0.40;98.00;;;;;;5111830;28;20549;-66
2022/03/02 00:05:27;;;;;;;2.23;2.07;;;0.20;98.00;;;;;;5112104;28;20568;-66
2022/03/02 00:07:54;;;;;;;1.60;1.50;;;0.00;98.00;;;;;;5111642;28;21015;-66
2022/03/02 00:10:23;;;;;;;2.27;1.73;;;-0.20;98.00;;;;;;5112079;28;20458;-66
2022/03/02 00:12:51;;;;;;;1.77;1.57;;;-0.20;98.00;;;;;;5111836;28;20514;-66
2022/03/02 00:15:21;;;;;;;1.77;1.43;;;-0.10;98.00;;;;;;5111918;28;20517;-66
2022/03/02 00:17:48;;;;;;;1.43;1.30;;;-0.30;98.00;;;;;;5111817;28;20490;-65
2022/03/02 00:20:15;;;;;;;2.60;1.97;;;-0.50;98.00;;;;;;5112003;28;20548;-66
2022/03/02 00:22:42;;;;;;;1.30;1.30;;;-0.40;98.00;;;;;;5111891;28;20490;-66
2022/03/02 00:25:10;;;;;;;1.97;1.57;;;-0.50;98.00;;;;;;5111943;28;20493;-66
2022/03/02 00:27:38;;;;;;;2.10;1.80;;;-0.40;98.00;;;;;;5111843;28;20533;-66
2022/03/02 00:30:10;;;;;;;1.20;1.00;;;-0.30;98.00;;;;;;5112104;28;20515;-66
2022/03/02 00:32:37;;;;;;;9.93;1.97;;;-0.20;98.00;;;;;;5111372;28;20545;-66
2022/03/02 00:35:05;;;;;;;3.53;1.87;;;-0.40;98.00;;;;;;5110988;28;20515;-66
2022/03/02 00:37:32;;;;;;;1.50;1.47;;;-0.60;98.00;;;;;;5110984;28;20450;-66
2022/03/02 00:39:59;;;;;;;2.07;1.80;;;-0.60;98.00;;;;;;5109978;28;21002;-66
2022/03/02 00:42:29;;;;;;;2.63;2.13;;;-0.50;98.00;;;;;;5111520;28;20459;-66
2022/03/02 00:44:58;;;;;;;1.97;1.87;;;-0.60;98.00;;;;;;5111373;28;20452;-66
2022/03/02 00:47:26;;;;;;;2.57;2.40;;;-0.70;98.00;;;;;;5111395;28;20504;-66
2022/03/02 00:49:53;;;;;;;3.00;1.93;;;-0.70;98.00;;;;;;5111388;28;20492;-66
2022/03/02 00:52:21;;;;;;;2.50;2.23;;;-0.40;98.00;;;;;;5110275;28;20515;-66
2022/03/02 00:54:48;;;;;;;1.40;1.20;;;-0.20;98.00;;;;;;5114299;28;20485;-65
2022/03/02 00:57:15;;;;;;;2.70;2.03;;;-0.10;98.00;;;;;;5115130;28;20508;-65
2022/03/02 00:59:42;;;;;;;3.40;2.57;;;0.00;98.00;;;;;;5114711;28;20558;-66
2022/03/02 01:02:11;;;;;;;2.37;1.77;;;-0.10;98.00;;;;;;5115144;28;20501;-66
2022/03/02 01:04:37;;;;;;;1.83;1.77;;;0.00;98.00;;;;;;5115031;28;20733;-66
2022/03/02 01:07:05;;;;;;;2.57;2.37;;;-0.10;98.00;;;;;;5115038;28;20455;-66
2022/03/02 01:09:32;;;;;;;1.50;1.40;;;-0.10;98.00;;;;;;5115055;28;20489;-66
2022/03/02 01:11:59;;;;;;;2.17;1.53;;;-0.10;98.00;;;;;;5113719;28;20536;-66
2022/03/02 01:14:29;;;;;;;1.50;1.50;;;0.00;98.00;;;;;;5115037;28;20571;-66
2022/03/02 01:16:56;;;;;;;1.93;1.83;;;-0.20;98.00;;;;;;5114943;28;20553;-66
2022/03/02 01:19:25;;;;;;;1.40;1.40;;;-0.20;98.00;;;;;;5113796;28;20478;-65
2022/03/02 01:21:52;;;;;;;2.93;2.13;;;-0.20;98.00;;;;;;5113415;28;20497;-66
2022/03/02 01:24:21;;;;;;;2.93;1.83;;;-0.20;98.00;;;;;;5114496;28;20878;-66
2022/03/02 01:26:48;;;;;;;1.43;1.40;;;-0.50;98.00;;;;;;5113248;28;20534;-66
2022/03/02 01:29:15;;;;;;;2.23;1.40;;;-0.50;98.00;;;;;;5114496;28;21092;-66
2022/03/02 01:31:43;;;;;;;2.33;1.47;;;-0.50;98.00;;;;;;5114481;28;20956;-65
2022/03/02 01:34:10;;;;;;;2.07;1.60;;;-0.60;98.00;;;;;;5114256;28;20558;-65
2022/03/02 01:36:38;;;;;;;2.13;1.83;;;-0.60;98.00;;;;;;5114461;28;20883;-65
2022/03/02 01:39:08;;;;;;;3.03;2.33;;;-0.50;98.00;;;;;;5114139;28;20515;-66
2022/03/02 01:41:37;;;;;;;2.70;2.50;;;-0.70;98.00;;;;;;5114350;28;20462;-66
2022/03/02 01:44:05;;;;;;;1.50;1.33;;;-0.60;98.00;;;;;;5114255;28;20466;-65
2022/03/02 01:46:32;;;;;;;1.83;1.50;;;-0.70;98.00;;;;;;5114043;28;20554;-65
2022/03/02 01:48:59;;;;;;;1.80;1.73;;;-0.70;98.00;;;;;;5114055;28;20517;-65
2022/03/02 01:51:29;;;;;;;1.30;1.20;;;-0.70;98.00;;;;;;5114229;28;20453;-66
2022/03/02 01:53:57;;;;;;;1.73;1.63;;;-0.50;98.00;;;;;;5114045;28;20562;-66
2022/03/02 01:56:24;;;;;;;1.20;1.10;;;-0.40;98.00;;;;;;5113882;28;20462;-65
2022/03/02 01:58:51;;;;;;;3.10;2.80;;;-0.30;98.00;;;;;;5114027;28;20775;-65
2022/03/02 02:01:19;;;;;;;2.80;1.67;;;-0.20;98.00;;;;;;5114156;28;20486;-65
2022/03/02 02:03:47;;;;;;;2.27;2.17;;;-0.20;98.00;;;;;;5114075;28;20461;-66
2022/03/02 02:06:14;;;;;;;3.00;1.57;;;-0.40;98.00;;;;;;5113092;28;20515;-65
2022/03/02 02:08:42;;;;;;;1.50;1.40;;;-0.30;98.00;;;;;;5114002;28;20964;-66
2022/03/02 02:11:14;;;;;;;2.10;1.83;;;-0.30;98.00;;;;;;5114114;28;20538;-66
2022/03/02 02:13:42;;;;;;;2.20;1.97;;;-0.10;98.00;;;;;;5113813;28;20531;-66
2022/03/02 02:16:09;;;;;;;2.27;1.77;;;-0.10;98.00;;;;;;5112118;28;20493;-65
2022/03/02 02:18:37;;;;;;;3.80;2.97;;;-0.30;98.00;;;;;;5113479;28;20485;-65
2022/03/02 02:21:10;;;;;;;1.60;1.60;;;-0.50;98.00;;;;;;5112167;28;20540;-65
2022/03/02 02:23:38;;;;;;;1.17;1.10;;;-0.50;98.00;;;;;;5113366;28;20453;-65
2022/03/02 02:26:06;;;;;;;1.60;1.50;;;-0.60;98.00;;;;;;5113433;28;20991;-66
2022/03/02 02:28:34;;;;;;;2.17;1.90;;;-0.70;98.00;;;;;;5113185;28;20487;-66
2022/03/02 02:31:03;;;;;;;2.73;2.00;;;-0.70;98.00;;;;;;5113189;28;20485;-65
2022/03/02 02:33:30;;;;;;;1.20;1.20;;;-0.70;98.00;;;;;;5113162;28;20531;-65
2022/03/02 02:35:57;;;;;;;2.73;2.53;;;-0.60;98.00;;;;;;5113044;28;20520;-65
2022/03/02 02:38:26;;;;;;;1.40;1.30;;;-0.60;98.00;;;;;;5112949;28;20971;-66
2022/03/02 02:40:54;;;;;;;2.70;2.07;;;-0.60;98.00;;;;;;5113144;28;20527;-66
2022/03/02 02:43:23;;;;;;;4.27;3.30;;;-0.50;98.00;;;;;;5113003;28;20535;-66
2022/03/02 02:45:52;;;;;;;3.33;3.13;;;-0.50;98.00;;;;;;5113017;28;20538;-65
2022/03/02 02:48:19;;;;;;;1.50;1.40;;;-0.40;98.00;;;;;;5112940;28;20450;-65
2022/03/02 02:50:46;;;;;;;1.20;1.00;;;-0.40;98.00;;;;;;5112941;28;20523;-65
2022/03/02 02:53:14;;;;;;;1.20;1.10;;;-0.40;98.00;;;;;;5113122;28;20488;-65
2022/03/02 02:55:44;;;;;;;1.67;1.53;;;-0.60;98.00;;;;;;5112947;28;20493;-65
2022/03/02 02:58:11;;;;;;;2.03;1.77;;;-0.80;98.00;;;;;;5112777;28;20549;-65
2022/03/02 03:00:44;;;;;;;1.80;1.50;;;-0.90;98.00;;;;;;5113063;28;20454;-65
2022/03/02 03:03:11;;;;;;;3.70;2.70;;;-0.80;98.00;;;;;;5112923;28;20493;-65
2022/03/02 03:05:38;;;;;;;2.63;1.87;;;-0.80;98.00;;;;;;5112801;28;20504;-65
2022/03/02 03:08:07;;;;;;;1.50;1.30;;;-1.00;98.00;;;;;;5112520;28;20549;-66
2022/03/02 03:10:35;;;;;;;1.70;1.50;;;-0.90;98.00;;;;;;5111480;28;20458;-66
2022/03/02 03:13:08;;;;;;;1.67;1.60;;;-0.90;98.00;;;;;;5112503;28;20489;-65
2022/03/02 03:15:35;;;;;;;2.37;1.70;;;-1.10;98.00;;;;;;5111298;28;20511;-66
2022/03/02 03:18:04;;;;;;;2.17;2.07;;;-1.30;98.00;;;;;;5112188;28;20544;-65
2022/03/02 03:20:31;;;;;;;1.40;1.10;;;-1.40;98.00;;;;;;5112355;28;20951;-65
2022/03/02 03:22:58;;;;;;;1.20;1.20;;;-1.50;98.00;;;;;;5112408;28;20893;-66
2022/03/02 03:25:27;;;;;;;1.30;1.30;;;-1.40;98.00;;;;;;5112302;28;20454;-66
2022/03/02 03:27:55;;;;;;;2.13;1.70;;;-1.30;98.00;;;;;;5112245;28;20485;-65
2022/03/02 03:30:27;;;;;;;1.90;1.60;;;-1.40;98.00;;;;;;5112227;28;20464;-66
2022/03/02 03:32:54;;;;;;;3.58;2.40;;;-1.40;98.00;;;;;;5112158;28;20488;-66
2022/03/02 03:35:25;;;;;;;13.10;2.60;;;-1.40;98.00;;;;;;5112125;28;20656;-65
2022/03/02 03:37:53;;;;;;;1.20;1.20;;;-1.40;98.00;;;;;;5112219;28;20930;-65
2022/03/02 03:40:21;;;;;;;1.80;1.67;;;-1.60;98.00;;;;;;5112242;28;20558;-66
2022/03/02 03:42:49;;;;;;;3.10;1.80;;;-1.60;98.00;;;;;;5112191;28;20464;-65
2022/03/02 03:45:16;;;;;;;1.20;1.20;;;-1.50;98.00;;;;;;5112271;28;20493;-65
2022/03/02 03:47:46;;;;;;;1.20;1.10;;;-1.50;98.00;;;;;;5112222;28;20240;-66
2022/03/02 03:50:14;;;;;;;2.73;2.03;;;-1.50;98.00;;;;;;5112243;28;20483;-66
2022/03/02 03:52:41;;;;;;;1.87;1.77;;;-1.60;98.00;;;;;;5112227;28;20503;-66
2022/03/02 03:55:10;;;;;;;1.53;1.47;;;-1.60;98.00;;;;;;5112370;28;20872;-66
2022/03/02 03:57:38;;;;;;;1.80;1.70;;;-1.60;98.00;;;;;;5111873;28;20523;-66
2022/03/02 04:00:07;;;;;;;1.70;1.50;;;-1.60;98.00;;;;;;5111987;28;20484;-64
2022/03/02 04:02:34;;;;;;;1.20;1.10;;;-1.60;98.00;;;;;;5111996;28;20454;-65
2022/03/02 04:05:03;;;;;;;1.70;1.63;;;-1.60;98.00;;;;;;5110565;28;20483;-65
2022/03/02 04:07:30;;;;;;;2.13;1.40;;;-1.60;98.00;;;;;;5111847;28;20580;-65
2022/03/02 04:09:57;;;;;;;2.00;1.85;;;-1.60;98.00;;;;;;5111928;28;20505;-65
2022/03/02 04:12:24;;;;;;;1.97;1.53;;;-1.70;98.00;;;;;;5111802;28;20248;-66
2022/03/02 04:14:51;;;;;;;1.73;1.50;;;-1.70;98.00;;;;;;5093790;28;20512;-65
2022/03/02 04:17:19;;;;;;;1.60;1.50;;;-1.70;98.00;;;;;;5110656;28;20892;-65
2022/03/02 04:19:46;;;;;;;2.00;1.93;;;-1.70;98.00;;;;;;5111899;28;21019;-65
2022/03/02 04:22:14;;;;;;;1.20;1.10;;;-1.70;98.00;;;;;;5111720;28;20556;-65
2022/03/02 04:24:41;;;;;;;2.10;1.83;;;-1.60;98.00;;;;;;5111697;28;20492;-65
2022/03/02 04:27:08;;;;;;;2.00;1.50;;;-1.40;98.00;;;;;;5111683;28;20498;-65
2022/03/02 04:29:36;;;;;;;3.40;2.30;;;-1.40;98.00;;;;;;5114662;28;20539;-65
2022/03/02 04:32:03;;;;;;;2.27;2.07;;;-1.50;98.00;;;;;;5115593;28;20547;-65
2022/03/02 04:34:30;;;;;;;2.10;1.87;;;-1.50;98.00;;;;;;5115621;28;20842;-65
2022/03/02 04:36:58;;;;;;;2.30;2.13;;;-1.60;98.00;;;;;;5114506;28;20461;-66
2022/03/02 04:39:27;;;;;;;1.50;1.47;;;-1.60;98.00;;;;;;5115421;28;20515;-66
2022/03/02 04:41:54;;;;;;;1.10;1.00;;;-1.60;98.00;;;;;;5115507;28;20502;-65
2022/03/02 04:44:21;;;;;;;1.53;1.43;;;-1.60;98.00;;;;;;5115506;28;20239;-65
2022/03/02 04:46:51;;;;;;;1.43;1.37;;;-1.40;98.00;;;;;;5115671;28;20526;-65
2022/03/02 04:49:18;;;;;;;1.20;1.10;;;-1.30;98.00;;;;;;5115332;28;20960;-65
2022/03/02 04:51:46;;;;;;;1.45;1.20;;;-1.40;98.00;;;;;;5115334;28;20238;-65
2022/03/02 04:56:57;;;;;;;1.83;1.83;;;-1.70;98.00;;;;;;5114587;28;20487;-65
2022/03/02 04:59:24;;;;;;;2.47;2.25;;;-1.70;98.00;;;;;;5115079;28;20546;-65
2022/03/02 05:01:51;;;;;;;3.03;2.83;;;-1.60;98.00;;;;;;5115276;28;20608;-66
2022/03/02 05:04:18;;;;;;;1.80;1.53;;;-1.70;98.00;;;;;;5114978;28;20535;-66
2022/03/02 05:06:45;;;;;;;1.80;1.73;;;-1.70;98.00;;;;;;5114970;28;21025;-65
2022/03/02 05:09:12;;;;;;;1.20;1.10;;;-1.70;98.00;;;;;;5114527;27;20456;-65
2022/03/02 05:11:42;;;;;;;1.63;1.53;;;-1.80;98.00;;;;;;5115055;28;20500;-64
2022/03/02 05:14:10;;;;;;;1.63;1.57;;;-1.80;98.00;;;;;;5113544;28;20478;-65
2022/03/02 05:16:37;;;;;;;3.10;1.93;;;-1.80;98.00;;;;;;5114785;28;20482;-65
2022/03/02 05:19:05;;;;;;;1.92;1.83;;;-1.90;98.00;;;;;;5114778;28;20541;-65
2022/03/02 05:21:36;;;;;;;1.80;1.70;;;-1.90;98.00;;;;;;5113606;28;20206;-65
2022/03/02 05:24:04;;;;;;;2.90;2.47;;;-1.90;98.00;;;;;;5114630;28;20525;-65
2022/03/02 05:26:31;;;;;;;2.00;1.43;;;-1.80;98.00;;;;;;5113464;28;20456;-65
2022/03/02 05:28:58;;;;;;;1.50;1.47;;;-1.80;98.00;;;;;;5114602;28;20555;-66
2022/03/02 05:31:26;;;;;;;1.20;1.10;;;-1.90;98.00;;;;;;5114517;28;20488;-65
2022/03/02 05:33:55;;;;;;;8.53;3.07;;;-2.00;98.00;;;;;;5114603;28;20511;-64
2022/03/02 05:36:22;;;;;;;1.63;1.63;;;-2.00;98.00;;;;;;5114546;28;20957;-65
2022/03/02 05:38:50;;;;;;;2.73;1.80;;;-2.00;98.00;;;;;;5114120;28;20460;-65
2022/03/02 05:41:17;;;;;;;1.57;1.40;;;-1.90;98.00;;;;;;5113969;28;20509;-65
2022/03/02 05:43:44;;;;;;;1.50;1.40;;;-1.80;98.00;;;;;;5113561;28;20499;-65
2022/03/02 05:46:11;;;;;;;1.30;1.27;;;-1.90;98.00;;;;;;5114005;28;20897;-65
2022/03/02 05:48:39;;;;;;;3.90;2.27;;;-2.00;98.00;;;;;;5113991;28;20825;-65
2022/03/02 05:51:06;;;;;;;1.20;1.10;;;-1.80;98.00;;;;;;5113717;28;20464;-65
2022/03/02 05:53:34;;;;;;;1.30;1.27;;;-1.90;98.00;;;;;;5113915;28;20521;-65
2022/03/02 05:56:00;;;;;;;1.73;1.50;;;-2.00;98.00;;;;;;5113993;28;20570;-65
2022/03/02 05:58:28;;;;;;;1.20;1.10;;;-2.00;98.00;;;;;;5113816;28;20871;-67
2022/03/02 06:00:59;;;;;;;1.23;1.23;;;-2.00;98.00;;;;;;5113830;28;20484;-65
2022/03/02 06:03:26;;;;;;;1.20;1.20;;;-1.80;98.00;;;;;;5113891;28;20459;-65
2022/03/02 06:05:55;;;;;;;1.80;1.70;;;-1.80;98.00;;;;;;5113858;28;20487;-67
2022/03/02 06:08:22;;;;;;;1.20;1.10;;;-1.70;98.00;;;;;;5113820;28;21015;-66
2022/03/02 06:10:50;;;;;;;1.50;1.27;;;-1.70;98.00;;;;;;5113743;28;20210;-66
2022/03/02 06:13:18;;;;;;;1.95;1.85;;;-1.70;98.00;;;;;;5095533;28;20459;-65
2022/03/02 06:15:46;;;;;;;1.77;1.50;;;-1.80;98.00;;;;;;5112405;28;20646;-64
2022/03/02 06:18:15;;;;;;;1.50;1.47;;;-1.80;98.00;;;;;;5113763;28;20474;-65
2022/03/02 06:20:43;;;;;;;1.90;1.60;;;-1.90;98.00;;;;;;5113714;28;20874;-65
2022/03/02 06:23:13;;;;;;;1.40;1.30;;;-1.90;98.00;;;;;;5113630;28;20449;-65
2022/03/02 06:25:41;;;;;;;4.70;2.10;;;-1.80;98.00;;;;;;5113731;28;20489;-65
2022/03/02 06:28:08;;;;;;;1.30;1.20;;;-1.80;98.00;;;;;;5113712;28;20488;-65
2022/03/02 06:30:35;;;;;;;2.33;2.17;;;-1.70;98.00;;;;;;5113399;28;20486;-65
2022/03/02 06:33:02;;;;;;;1.50;1.50;;;-1.60;98.00;;;;;;5113494;28;20460;-66
2022/03/02 06:35:29;;;;;;;2.00;1.58;;;-1.70;98.00;;;;;;5113061;28;20574;-66
2022/03/02 06:37:56;;;;;;;1.53;1.43;;;-1.70;98.00;;;;;;5113220;28;20750;-66
2022/03/02 06:40:24;;;;;;;1.20;1.20;;;-1.70;98.00;;;;;;5112976;28;20448;-66
2022/03/02 06:43:00;;;;;;;2.93;2.63;;;-1.50;98.00;;;;;;5113058;28;20215;-67
2022/03/02 06:45:49;;;;;;;1.57;1.47;;;-1.40;98.00;;;;;;5112123;27;20487;-66
2022/03/02 06:48:21;;;;;;;1.50;1.20;;;-1.30;98.00;;;;;;5112939;28;20464;-66
2022/03/02 06:50:53;;;;;;;1.20;1.10;;;-1.10;98.00;;;;;;5112398;28;20452;-65
2022/03/02 06:53:29;;;;;;;1.20;1.10;;;-1.00;98.00;;;;;;5112946;28;20489;-66
2022/03/02 06:56:00;;;;;;;1.77;1.70;;;-0.70;98.00;;;;;;5112669;28;20920;-65
2022/03/02 06:58:29;;;;;;;1.57;1.53;;;-0.40;98.00;;;;;;5112304;28;20533;-66
2022/03/02 07:00:58;;;;;;;3.00;2.60;;;-0.40;98.00;;;;;;5112881;28;20448;-65
2022/03/02 07:03:29;;;;;;;1.30;1.30;;;-0.50;98.00;;;;;;5112790;28;20496;-65
2022/03/02 07:05:56;;;;;;;1.20;1.20;;;-0.50;98.00;;;;;;5112762;28;20926;-66
2022/03/02 07:08:25;;;;;;;2.93;2.73;;;-0.50;98.00;;;;;;5112882;28;20871;-65
2022/03/02 07:10:52;;;;;;;1.90;1.80;;;-0.40;98.00;;;;;;5112304;28;20485;-66
2022/03/02 07:13:27;;;;;;;1.40;1.30;;;-0.20;98.00;;;;;;5112612;28;20458;-66
2022/03/02 07:15:54;;;;;;;2.27;2.07;;;-0.20;98.00;;;;;;5112639;28;20484;-66
2022/03/02 07:29:13;;;;;;;1.43;1.37;;;0.20;98.00;;;;;;5071472;28;21031;-88
2022/03/02 07:58:51;;;;;;;2.47;1.47;;;0.30;98.00;;;;;;4948901;29;20487;-86
2022/03/02 08:01:34;;;;;;;2.43;1.73;;;0.60;98.00;;;;;;4964887;28;20497;-86
2022/03/02 08:32:23;;;;;;;1.70;1.53;;;1.60;98.00;;;;;;4853870;29;20499;-91
2022/03/02 08:37:42;;;;;;;1.20;1.10;;;1.90;98.00;;;;;;5005398;28;20487;-87
2022/03/02 08:40:16;;;;;;;1.50;1.40;;;2.10;98.00;;;;;;5047967;28;20907;-87
2022/03/02 08:42:47;;;;;;;4.07;2.27;;;2.10;98.00;;;;;;5073271;28;20468;-87
2022/03/02 08:45:16;;;;;;;2.70;1.63;;;2.30;98.00;;;;;;5072268;28;20831;-88
2022/03/02 08:47:44;;;;;;;1.70;1.67;;;2.50;98.00;;;;;;5072739;28;20527;-87
2022/03/02 08:50:33;;;;;;;2.03;1.93;;;2.60;98.00;;;;;;5070082;28;20502;-87
2022/03/02 08:53:02;;;;;;;1.60;1.60;;;2.80;98.00;;;;;;5072664;28;20464;-90
2022/03/02 08:55:33;;;;;;;1.87;1.50;;;3.00;98.00;;;;;;5071761;28;20475;-87
2022/03/02 08:58:01;;;;;;;1.60;1.50;;;3.20;98.00;;;;;;5063440;28;21063;-86
2022/03/02 09:00:34;;;;;;;2.07;1.87;;;3.30;98.00;;;;;;5063273;28;20459;-91
2022/03/02 09:03:03;;;;;;;1.60;1.30;;;3.40;98.00;;;;;;5063752;28;20826;-86
2022/03/02 09:05:31;;;;;;;7.83;2.50;;;3.50;97.80;;;;;;5071801;28;20441;-88
2022/03/02 09:07:59;;;;;;;2.60;2.10;;;3.70;97.60;;;;;;5071854;28;20824;-87
2022/03/02 09:10:28;;;;;;;5.23;2.30;;;3.80;97.80;;;;;;5071733;28;20468;-88
2022/03/02 09:12:59;;;;;;;3.77;2.40;;;3.90;98.00;;;;;;5072797;28;20468;-89
2022/03/02 09:15:27;;;;;;;1.50;1.47;;;4.00;98.00;;;;;;5071771;28;20898;-88
2022/03/02 09:17:55;;;;;;;1.40;1.40;;;4.00;98.00;;;;;;5071586;28;20500;-88
2022/03/02 09:20:33;;;;;;;1.20;1.10;;;4.30;98.00;;;;;;5072014;28;20983;-88
2022/03/02 09:23:09;;;;;;;1.20;1.10;;;4.30;97.40;;;;;;5072886;28;20457;-89
2022/03/02 09:25:42;;;;;;;1.67;1.57;;;4.50;98.00;;;;;;5072597;28;20555;-89
2022/03/02 09:28:21;;;;;;;4.63;2.47;;;4.50;96.00;;;;;;5072307;28;20466;-89
2022/03/02 09:30:50;;;;;;;2.67;2.47;;;4.60;96.70;;;;;;5068534;28;20526;-87
2022/03/02 09:33:20;;;;;;;1.60;1.50;;;4.90;97.30;;;;;;5071831;28;20553;-88
2022/03/02 09:35:51;;;;;;;3.43;2.07;;;5.00;96.10;;;;;;5070659;28;20533;-87
2022/03/02 09:38:30;;;;;;;3.17;1.93;;;5.20;94.90;;;;;;5071957;28;21003;-88
2022/03/02 09:45:25;;;;;;;2.07;1.77;;;5.50;93.60;;;;;;5072062;28;20446;-89
2022/03/02 09:48:00;;;;;;;2.90;1.90;;;5.80;91.90;;;;;;5073479;28;20842;-88
2022/03/02 09:50:42;;;;;;;1.73;1.67;;;6.10;93.00;;;;;;5072510;28;20443;-89
2022/03/02 09:53:14;;;;;;;7.13;1.90;;;6.30;90.70;;;;;;5072952;28;20493;-88
2022/03/02 09:55:48;;;;;;;1.87;1.77;;;6.50;90.60;;;;;;5070509;28;20481;-89
2022/03/02 09:58:20;;;;;;;2.47;1.83;;;6.60;89.10;;;;;;5071159;28;20476;-90
2022/03/02 10:00:48;;;;;;;2.20;1.20;;;6.70;89.30;;;;;;5068753;28;20458;-90
2022/03/02 10:03:19;;;;;;;1.63;1.30;;;6.80;89.00;;;;;;5069219;28;20968;-90
2022/03/02 10:05:49;;;;;;;4.60;2.00;;;6.90;88.70;;;;;;5069643;28;20473;-90
2022/03/02 10:08:20;;;;;;;1.73;1.63;;;7.00;89.90;;;;;;5068578;28;20855;-88
2022/03/02 10:10:49;;;;;;;1.93;1.57;;;7.00;88.90;;;;;;5069277;28;20461;-86
2022/03/02 10:13:17;;;;;;;1.43;1.40;;;7.20;88.30;;;;;;5068796;28;20481;-87
2022/03/02 10:15:45;;;;;;;1.20;1.03;;;7.40;87.10;;;;;;5069524;28;20468;-87
2022/03/02 10:18:14;;;;;;;1.90;1.80;;;7.60;87.90;;;;;;5068583;28;20489;-87
2022/03/02 10:20:43;;;;;;;2.60;2.37;;;7.60;86.60;;;;;;5068392;28;20493;-87
2022/03/02 10:23:33;;;;;;;5.07;1.77;;;7.70;86.90;;;;;;5068484;28;20555;-86
2022/03/02 10:26:18;;;;;;;2.20;2.00;;;7.90;86.00;;;;;;5061907;28;20908;-89
2022/03/02 10:29:00;;;;;;;2.53;1.67;;;7.90;84.30;;;;;;5069111;28;20930;-89
2022/03/02 10:31:45;;;;;;;1.73;1.70;;;7.90;84.10;;;;;;5068229;28;20939;-88
2022/03/02 10:34:44;;;;;;;1.50;1.17;;;7.90;84.20;;;;;;5069009;28;20488;-88
2022/03/02 10:37:29;;;;;;;3.33;2.07;;;8.00;84.90;;;;;;5062107;28;20504;-88
2022/03/02 10:40:05;;;;;;;1.70;1.60;;;8.00;84.00;;;;;;5068734;28;20472;-88
2022/03/02 10:42:37;;;;;;;1.50;1.40;;;8.30;83.90;;;;;;5069060;28;20479;-89
2022/03/02 10:45:10;;;;;;;2.40;2.07;;;8.50;84.30;;;;;;5068503;28;21029;-88
2022/03/02 10:47:42;;;;;;;2.37;1.93;;;8.70;83.30;;;;;;5066940;28;20970;-87
2022/03/02 10:50:10;;;;;;;3.20;2.20;;;9.00;82.00;;;;;;5065369;28;20908;-85
2022/03/02 10:52:39;;;;;;;2.10;1.73;;;9.40;82.00;;;;;;5070083;28;20520;-88
2022/03/02 10:55:10;;;;;;;1.67;1.50;;;9.60;80.60;;;;;;5069857;28;21001;-86
2022/03/02 10:57:38;;;;;;;1.20;1.00;;;9.70;79.00;;;;;;5069254;28;20499;-88
2022/03/02 11:00:13;;;;;;;4.60;1.93;;;9.80;81.20;;;;;;5069696;28;20471;-88
2022/03/02 11:02:42;;;;;;;4.40;2.23;;;10.00;80.40;;;;;;5073336;28;20518;-87
2022/03/02 11:05:11;;;;;;;2.70;1.73;;;10.10;79.60;;;;;;5072063;28;20488;-87
2022/03/02 11:07:39;;;;;;;4.63;1.97;;;10.20;78.80;;;;;;5073463;28;20910;-85
2022/03/02 11:20:20;;;;;;;2.23;2.03;;;10.20;76.00;;;;;;5065145;28;20470;-87
2022/03/02 17:42:19;;;;;;;2.20;2.00;;;7.00;94.10;;;;;;4955120;28;20524;-88
